Time;durP1;ratioP1;P1;durP2;ratioP2;P2;SDS_P1;SDS_P2;PMS_P1;PMS_P2;Temp;Humidity;BMP_temperature;BMP_pressure;BME280_temperature;BME280_humidity;BME280_pressure;Samples;Min_cycle;Max_cycle;Signal;HPM_P1;HPM_P2
2021/05/22 04:01:32;;;;;;;3.00;1.40;;;10.20;99.90;;;;;;5442901;23;20318;-73
2021/05/22 04:03:58;;;;;;;1.83;1.27;;;10.30;99.90;;;;;;4935384;29;20230;-73
2021/05/22 04:06:24;;;;;;;1.33;1.33;;;10.30;99.90;;;;;;4932730;29;20210;-73
2021/05/22 04:08:50;;;;;;;1.42;1.15;;;10.30;99.90;;;;;;4932573;29;22045;-73
2021/05/22 04:11:17;;;;;;;3.38;1.30;;;10.40;99.90;;;;;;4920319;29;20254;-72
2021/05/22 04:13:43;;;;;;;1.50;1.30;;;10.50;99.90;;;;;;4903625;29;20207;-73
2021/05/22 04:16:09;;;;;;;1.08;1.08;;;10.60;99.90;;;;;;4914112;29;20657;-72
2021/05/22 04:18:36;;;;;;;3.78;1.20;;;10.60;99.90;;;;;;4915670;29;20211;-73
2021/05/22 04:21:02;;;;;;;1.65;1.55;;;10.70;99.90;;;;;;4915705;29;20235;-73
2021/05/22 04:23:29;;;;;;;1.60;1.50;;;10.70;99.90;;;;;;4915668;29;20578;-74
2021/05/22 04:25:55;;;;;;;1.70;1.25;;;11.00;99.90;;;;;;4915939;29;20206;-73
2021/05/22 04:28:21;;;;;;;1.85;1.52;;;11.60;99.90;;;;;;4913770;29;20214;-74
2021/05/22 04:30:47;;;;;;;4.80;1.20;;;12.40;99.90;;;;;;4915830;29;20238;-71
2021/05/22 04:33:13;;;;;;;3.90;1.20;;;13.20;99.90;;;;;;4915461;29;20233;-72
2021/05/22 04:35:41;;;;;;;1.90;1.10;;;13.80;99.90;;;;;;4911827;29;20493;-71
2021/05/22 04:38:07;;;;;;;1.70;1.40;;;14.20;99.90;;;;;;4916325;29;20490;-73
2021/05/22 04:40:33;;;;;;;2.10;1.07;;;14.50;99.90;;;;;;4915306;29;20557;-71
2021/05/22 04:43:00;;;;;;;0.80;0.80;;;15.00;99.90;;;;;;4915851;29;20470;-72
2021/05/22 04:45:26;;;;;;;1.63;0.70;;;15.30;99.90;;;;;;4913430;29;20481;-72
2021/05/22 04:47:52;;;;;;;1.50;1.40;;;15.30;99.90;;;;;;4914043;29;20463;-72
2021/05/22 04:50:18;;;;;;;4.10;1.30;;;15.60;99.90;;;;;;4914889;29;20477;-72
2021/05/22 04:52:45;;;;;;;1.80;1.00;;;15.70;99.90;;;;;;4915967;29;20481;-71
2021/05/22 04:55:12;;;;;;;1.33;1.00;;;15.50;99.90;;;;;;4916062;29;20459;-72
2021/05/22 04:57:38;;;;;;;1.17;1.17;;;15.70;99.90;;;;;;4912438;29;20498;-72
2021/05/22 05:00:07;;;;;;;5.03;1.20;;;15.60;99.90;;;;;;4915128;29;20849;-72
2021/05/22 05:02:33;;;;;;;1.80;0.87;;;15.80;99.90;;;;;;4914719;29;20490;-72
2021/05/22 05:05:00;;;;;;;1.70;1.00;;;16.20;99.90;;;;;;4914153;29;20951;-72
2021/05/22 05:07:26;;;;;;;1.70;1.17;;;16.50;99.90;;;;;;4913334;29;20540;-72
2021/05/22 05:09:53;;;;;;;1.00;0.80;;;16.60;99.90;;;;;;4915440;29;20474;-73
2021/05/22 05:12:20;;;;;;;2.50;1.00;;;16.70;99.90;;;;;;4915786;29;20482;-73
2021/05/22 05:14:47;;;;;;;1.10;0.83;;;17.10;99.90;;;;;;4912576;29;20572;-75
2021/05/22 05:17:13;;;;;;;1.33;0.70;;;17.10;99.90;;;;;;4913852;29;20486;-72
2021/05/22 05:19:39;;;;;;;3.43;1.30;;;16.70;99.90;;;;;;4914838;29;20482;-73
2021/05/22 05:22:05;;;;;;;1.00;1.00;;;16.70;99.90;;;;;;4909224;29;20502;-73
2021/05/22 05:24:31;;;;;;;1.70;0.90;;;16.70;99.90;;;;;;4914048;29;20474;-77
2021/05/22 05:26:58;;;;;;;0.80;0.80;;;16.50;99.90;;;;;;4915242;29;20838;-73
2021/05/22 05:29:25;;;;;;;1.10;1.10;;;16.60;99.90;;;;;;4913670;29;20474;-73
2021/05/22 05:31:51;;;;;;;1.30;1.20;;;16.40;99.90;;;;;;4914910;29;20493;-73
2021/05/22 05:34:17;;;;;;;4.83;1.20;;;16.40;99.90;;;;;;4914680;29;20609;-73
2021/05/22 05:36:43;;;;;;;0.97;0.77;;;16.30;99.90;;;;;;4915183;29;20490;-72
2021/05/22 05:39:10;;;;;;;1.17;0.90;;;16.00;99.90;;;;;;4915655;29;20907;-73
2021/05/22 05:41:37;;;;;;;1.13;0.70;;;16.00;99.90;;;;;;4921549;29;20532;-73
2021/05/22 05:44:05;;;;;;;1.30;0.63;;;16.10;99.90;;;;;;4919197;29;20875;-74
2021/05/22 05:46:31;;;;;;;0.77;0.60;;;15.80;99.90;;;;;;4921393;29;20477;-73
2021/05/22 05:48:57;;;;;;;0.70;0.60;;;16.00;99.90;;;;;;4919732;29;21001;-77
2021/05/22 05:51:23;;;;;;;0.70;0.70;;;16.40;99.90;;;;;;4921561;29;20862;-72
2021/05/22 05:53:49;;;;;;;1.30;1.20;;;16.50;99.90;;;;;;4921942;29;20466;-71
2021/05/22 05:56:16;;;;;;;0.77;0.77;;;16.60;99.90;;;;;;4921742;29;20469;-71
2021/05/22 05:58:42;;;;;;;1.87;1.20;;;17.20;99.90;;;;;;4921384;29;20541;-72
2021/05/22 06:01:13;;;;;;;1.10;0.87;;;17.10;99.90;;;;;;4919171;29;20501;-70
2021/05/22 06:03:39;;;;;;;0.67;0.67;;;17.50;99.90;;;;;;4922291;29;20521;-72
2021/05/22 06:06:06;;;;;;;1.53;0.80;;;17.60;99.90;;;;;;4920235;29;20473;-71
2021/05/22 06:08:32;;;;;;;1.03;0.97;;;17.60;99.90;;;;;;4922043;29;20930;-71
2021/05/22 06:11:00;;;;;;;2.00;1.20;;;18.00;99.90;;;;;;4921080;29;20482;-71
2021/05/22 06:13:27;;;;;;;1.13;1.03;;;18.20;99.90;;;;;;4921437;29;20465;-70
2021/05/22 06:16:01;;;;;;;1.97;0.97;;;18.70;99.90;;;;;;4918884;29;20962;-70
2021/05/22 06:18:33;;;;;;;1.00;0.90;;;18.70;99.90;;;;;;4922459;29;20494;-71
2021/05/22 06:20:59;;;;;;;0.77;0.70;;;18.80;99.90;;;;;;4921020;29;20502;-74
2021/05/22 06:23:26;;;;;;;1.37;1.10;;;18.70;99.90;;;;;;4921894;29;20466;-72
2021/05/22 06:25:52;;;;;;;2.43;0.90;;;18.60;99.90;;;;;;4920645;29;20576;-73
2021/05/22 06:28:19;;;;;;;3.87;0.70;;;18.60;99.90;;;;;;4922459;29;20530;-72
2021/05/22 06:30:46;;;;;;;1.53;0.90;;;18.10;99.90;;;;;;4920769;29;20849;-73
2021/05/22 06:33:12;;;;;;;2.40;0.87;;;18.10;99.90;;;;;;4921550;29;20548;-73
2021/05/22 06:35:39;;;;;;;1.50;0.77;;;18.40;99.90;;;;;;4920556;29;20470;-73
2021/05/22 06:38:05;;;;;;;2.83;0.73;;;18.20;99.90;;;;;;4922109;29;20501;-71
2021/05/22 06:40:31;;;;;;;0.73;0.73;;;18.30;99.90;;;;;;4921595;29;20513;-72
2021/05/22 06:42:58;;;;;;;1.07;1.07;;;18.50;99.90;;;;;;4920916;29;20470;-72
2021/05/22 06:45:26;;;;;;;0.97;0.67;;;18.90;99.90;;;;;;4921382;29;20473;-72
2021/05/22 06:47:52;;;;;;;1.70;0.97;;;19.70;99.90;;;;;;4922201;29;20517;-72
2021/05/22 06:50:18;;;;;;;0.83;0.60;;;19.70;99.60;;;;;;4921607;29;20466;-71
2021/05/22 06:52:46;;;;;;;3.73;0.97;;;19.80;98.30;;;;;;4919060;29;20542;-72
2021/05/22 06:55:12;;;;;;;0.80;0.80;;;19.50;98.70;;;;;;4918487;29;20458;-72
2021/05/22 06:57:38;;;;;;;2.20;0.80;;;19.00;98.30;;;;;;4918156;29;20501;-71
2021/05/22 07:00:06;;;;;;;0.80;0.80;;;18.60;98.80;;;;;;4918402;29;20509;-70
2021/05/22 07:02:32;;;;;;;0.80;0.73;;;18.50;99.00;;;;;;4918234;29;20979;-70
2021/05/22 07:04:59;;;;;;;0.50;0.50;;;18.00;99.90;;;;;;4918309;29;20470;-71
2021/05/22 07:07:25;;;;;;;1.33;0.73;;;18.20;99.90;;;;;;4918548;29;20467;-72
2021/05/22 07:09:52;;;;;;;1.47;0.90;;;18.70;99.90;;;;;;4918267;29;20470;-71
2021/05/22 07:12:18;;;;;;;2.27;0.97;;;18.00;99.50;;;;;;4915903;29;20489;-71
2021/05/22 07:14:44;;;;;;;2.47;0.90;;;17.10;99.90;;;;;;4917334;29;20473;-71
2021/05/22 07:17:10;;;;;;;2.33;0.97;;;16.60;99.90;;;;;;4917863;29;20553;-71
2021/05/22 07:19:37;;;;;;;1.00;0.70;;;16.30;99.90;;;;;;4917250;29;20463;-71
2021/05/22 07:22:03;;;;;;;1.53;0.70;;;16.10;99.90;;;;;;4917179;29;20238;-75
2021/05/22 07:24:29;;;;;;;0.73;0.73;;;16.10;99.90;;;;;;4917901;29;20466;-71
2021/05/22 07:26:56;;;;;;;0.70;0.70;;;15.80;99.90;;;;;;4918251;29;20752;-70
2021/05/22 07:29:24;;;;;;;2.57;0.90;;;15.70;99.90;;;;;;4917202;29;20470;-71
2021/05/22 07:31:51;;;;;;;0.80;0.80;;;15.90;99.90;;;;;;4917946;29;20486;-73
2021/05/22 07:34:17;;;;;;;1.90;0.67;;;16.30;99.90;;;;;;4917588;29;20470;-70
2021/05/22 07:36:44;;;;;;;1.90;0.73;;;17.10;99.90;;;;;;4917781;29;20470;-70
2021/05/22 07:39:13;;;;;;;0.93;0.93;;;17.50;99.90;;;;;;4917390;29;20489;-71
2021/05/22 07:41:39;;;;;;;1.20;1.20;;;17.40;99.90;;;;;;4917894;29;20486;-71
2021/05/22 07:44:07;;;;;;;0.70;0.70;;;17.30;99.90;;;;;;4916875;29;20857;-71
2021/05/22 07:46:33;;;;;;;1.00;1.00;;;17.40;99.90;;;;;;4917467;29;20947;-70
2021/05/22 07:49:00;;;;;;;0.70;0.70;;;17.10;99.90;;;;;;4917498;29;20467;-70
2021/05/22 07:51:26;;;;;;;0.70;0.70;;;16.70;99.90;;;;;;4917289;29;20482;-70
2021/05/22 07:53:53;;;;;;;2.23;1.30;;;16.20;99.90;;;;;;4917248;29;20564;-71
2021/05/22 07:56:19;;;;;;;1.20;1.20;;;15.90;99.90;;;;;;4917730;29;20473;-71
2021/05/22 07:58:45;;;;;;;4.43;0.90;;;15.80;99.90;;;;;;4916371;29;20490;-70
2021/05/22 08:01:12;;;;;;;3.50;1.50;;;15.50;99.90;;;;;;4917104;29;20513;-70
2021/05/22 08:03:38;;;;;;;1.13;1.03;;;15.50;99.90;;;;;;4916759;29;20467;-71
2021/05/22 08:06:05;;;;;;;0.70;0.70;;;15.50;99.90;;;;;;4917142;29;20570;-72
2021/05/22 08:08:31;;;;;;;1.90;0.93;;;15.60;99.90;;;;;;4917576;29;20490;-71
2021/05/22 08:10:57;;;;;;;0.97;0.97;;;15.80;99.90;;;;;;4917525;29;20497;-71
2021/05/22 08:13:27;;;;;;;0.90;0.60;;;15.90;99.90;;;;;;4916622;29;20466;-71
2021/05/22 08:15:54;;;;;;;0.90;0.90;;;16.20;99.90;;;;;;4917235;29;20574;-71
2021/05/22 08:18:21;;;;;;;0.97;0.60;;;16.50;99.90;;;;;;4917176;29;20501;-72
2021/05/22 08:20:47;;;;;;;2.20;1.40;;;16.30;99.90;;;;;;4917015;29;20493;-72
2021/05/22 08:23:13;;;;;;;0.80;0.80;;;16.50;99.90;;;;;;4916348;29;20462;-70
2021/05/22 08:25:40;;;;;;;1.37;1.00;;;16.60;99.90;;;;;;4916051;29;20494;-73
2021/05/22 08:28:08;;;;;;;1.00;0.80;;;16.80;99.90;;;;;;4916502;29;20479;-76
2021/05/22 08:30:34;;;;;;;0.90;0.90;;;16.70;99.90;;;;;;4916204;29;20514;-73
2021/05/22 08:33:01;;;;;;;1.70;0.70;;;17.00;99.90;;;;;;4916889;29;20478;-73
2021/05/22 08:35:29;;;;;;;1.90;1.00;;;17.40;99.90;;;;;;4913430;29;20466;-72
2021/05/22 08:37:55;;;;;;;1.20;1.10;;;17.70;99.90;;;;;;4916389;29;20522;-72
2021/05/22 08:40:26;;;;;;;1.03;0.67;;;17.80;99.90;;;;;;4916320;29;20542;-72
2021/05/22 08:42:52;;;;;;;0.73;0.73;;;17.50;99.90;;;;;;4915461;29;20514;-74
2021/05/22 08:45:20;;;;;;;0.70;0.70;;;17.10;99.90;;;;;;4915713;29;20967;-72
2021/05/22 08:47:50;;;;;;;1.00;0.73;;;17.00;99.90;;;;;;4916963;29;20463;-73
2021/05/22 08:50:19;;;;;;;1.20;1.10;;;17.10;99.90;;;;;;4916202;29;20463;-72
2021/05/22 08:52:47;;;;;;;2.20;0.80;;;17.00;99.90;;;;;;4910817;29;20467;-73
2021/05/22 08:55:13;;;;;;;1.10;1.00;;;17.20;99.90;;;;;;4916405;29;20466;-73
2021/05/22 08:57:40;;;;;;;0.90;0.90;;;17.00;99.90;;;;;;4916493;29;20490;-71
2021/05/22 09:00:11;;;;;;;2.90;1.10;;;16.50;99.90;;;;;;4915328;29;20470;-73
2021/05/22 09:02:38;;;;;;;1.03;0.70;;;16.30;99.90;;;;;;4916132;29;20474;-72
2021/05/22 09:05:14;;;;;;;0.93;0.93;;;15.90;99.90;;;;;;4916517;29;20499;-75
2021/05/22 09:07:43;;;;;;;1.80;1.03;;;15.50;99.90;;;;;;4914238;29;20775;-72
2021/05/22 09:10:16;;;;;;;1.07;0.87;;;15.30;99.90;;;;;;4916237;29;20533;-73
2021/05/22 09:12:44;;;;;;;2.50;1.43;;;15.20;99.90;;;;;;4915504;29;20478;-73
2021/05/22 09:15:12;;;;;;;1.53;1.13;;;15.00;99.90;;;;;;4914947;29;20474;-72
2021/05/22 09:17:44;;;;;;;1.80;1.00;;;14.90;99.90;;;;;;4915317;29;20490;-72
2021/05/22 09:20:13;;;;;;;3.53;0.97;;;14.90;99.90;;;;;;4915616;29;22162;-71
2021/05/22 09:22:39;;;;;;;0.80;0.80;;;14.90;99.90;;;;;;4915627;29;20463;-72
2021/05/22 09:25:08;;;;;;;1.27;1.00;;;15.00;99.90;;;;;;4915125;29;20816;-73
2021/05/22 09:27:37;;;;;;;0.80;0.80;;;15.10;99.90;;;;;;4915667;29;20518;-73
2021/05/22 09:30:06;;;;;;;3.10;1.50;;;15.10;99.90;;;;;;4914972;29;20522;-72
2021/05/22 09:32:32;;;;;;;3.90;1.47;;;15.20;99.90;;;;;;4915508;29;20576;-72
2021/05/22 09:34:58;;;;;;;2.10;1.20;;;15.40;99.90;;;;;;4915316;29;20986;-73
2021/05/22 09:37:25;;;;;;;1.17;1.17;;;15.50;99.90;;;;;;4916710;29;20494;-73
2021/05/22 09:39:53;;;;;;;0.97;0.97;;;15.50;99.90;;;;;;4915824;29;20475;-72
2021/05/22 09:42:26;;;;;;;0.90;0.90;;;15.40;99.90;;;;;;4913387;29;20573;-72
2021/05/22 09:44:54;;;;;;;3.70;1.20;;;15.20;99.90;;;;;;4914296;29;20466;-72
2021/05/22 09:47:20;;;;;;;1.57;1.40;;;15.30;99.90;;;;;;4914931;29;20821;-73
2021/05/22 09:49:50;;;;;;;0.70;0.60;;;15.30;99.90;;;;;;4908503;29;20474;-72
2021/05/22 09:52:16;;;;;;;0.80;0.80;;;15.20;99.90;;;;;;4913891;29;20556;-73
2021/05/22 09:54:45;;;;;;;1.00;1.00;;;15.10;99.90;;;;;;4915765;29;20537;-72
2021/05/22 09:57:14;;;;;;;1.70;1.00;;;14.90;99.90;;;;;;4914602;29;20570;-71
2021/05/22 09:59:41;;;;;;;1.03;0.70;;;14.70;99.90;;;;;;4915822;29;20550;-72
2021/05/22 10:02:08;;;;;;;1.03;0.80;;;14.50;99.90;;;;;;4913826;29;20506;-72
2021/05/22 10:04:34;;;;;;;1.13;1.00;;;14.40;99.90;;;;;;4914899;29;20483;-72
2021/05/22 10:07:00;;;;;;;3.43;0.93;;;14.30;99.90;;;;;;4914587;29;20462;-73
2021/05/22 10:09:28;;;;;;;1.57;0.90;;;14.20;99.90;;;;;;4903986;29;20474;-72
2021/05/22 10:12:02;;;;;;;2.30;1.37;;;14.10;99.90;;;;;;4914902;29;20502;-72
2021/05/22 10:14:32;;;;;;;0.70;0.70;;;14.10;99.90;;;;;;4908874;29;20466;-73
2021/05/22 10:16:58;;;;;;;2.05;1.30;;;13.90;99.90;;;;;;4915615;29;20474;-72
2021/05/22 10:19:26;;;;;;;2.25;1.10;;;13.80;99.90;;;;;;4914595;29;20226;-72
2021/05/22 10:21:53;;;;;;;1.25;0.95;;;13.60;99.90;;;;;;4915889;29;20264;-73
2021/05/22 10:24:19;;;;;;;1.23;1.13;;;13.70;99.90;;;;;;4916310;29;20211;-72
2021/05/22 10:26:46;;;;;;;2.67;1.13;;;13.80;99.90;;;;;;4930602;29;20214;-72
2021/05/22 10:29:12;;;;;;;2.00;1.20;;;13.80;99.90;;;;;;4932661;29;20210;-71
2021/05/22 10:31:40;;;;;;;1.20;1.10;;;14.00;99.90;;;;;;4926030;29;20550;-72
2021/05/22 10:34:13;;;;;;;1.07;0.90;;;14.10;99.90;;;;;;4923194;29;20774;-71
2021/05/22 10:36:50;;;;;;;1.33;1.33;;;14.20;99.90;;;;;;4918401;29;20665;-72
2021/05/22 10:39:38;;;;;;;1.27;1.00;;;14.30;99.90;;;;;;4919261;29;20469;-72
2021/05/22 10:42:06;;;;;;;1.90;1.37;;;14.50;99.90;;;;;;4917322;29;20478;-74
2021/05/22 10:44:35;;;;;;;1.27;1.17;;;14.70;99.90;;;;;;4918688;29;20537;-72
2021/05/22 10:47:11;;;;;;;1.10;1.10;;;14.80;99.90;;;;;;4919332;29;20465;-73
2021/05/22 10:49:51;;;;;;;0.77;0.77;;;14.50;99.90;;;;;;4915922;29;20561;-72
2021/05/22 10:52:20;;;;;;;0.77;0.73;;;14.30;99.90;;;;;;4921539;29;20490;-73
2021/05/22 10:55:00;;;;;;;2.50;1.23;;;14.10;99.90;;;;;;4920509;29;20474;-73
2021/05/22 10:57:27;;;;;;;0.87;0.80;;;14.10;99.90;;;;;;4922251;29;20938;-72
2021/05/22 11:00:19;;;;;;;1.33;1.20;;;13.90;99.90;;;;;;4919159;29;20467;-73
2021/05/22 11:02:48;;;;;;;2.03;1.40;;;13.90;99.90;;;;;;4905680;29;20467;-72
2021/05/22 11:05:36;;;;;;;1.00;1.00;;;14.10;99.90;;;;;;4917824;29;20462;-72
2021/05/22 11:08:32;;;;;;;1.23;1.00;;;14.20;99.90;;;;;;4917898;29;20455;-72
2021/05/22 11:11:01;;;;;;;1.40;1.30;;;14.20;99.90;;;;;;4908415;29;20483;-71
2021/05/22 11:13:38;;;;;;;1.10;1.10;;;14.10;99.90;;;;;;4916600;29;20907;-73
2021/05/22 11:16:07;;;;;;;2.03;0.90;;;13.90;99.90;;;;;;4917837;29;20826;-71
2021/05/22 11:19:04;;;;;;;1.20;1.20;;;13.70;99.90;;;;;;4917617;29;20317;-71
2021/05/22 11:21:30;;;;;;;3.17;1.10;;;13.80;99.90;;;;;;4858736;29;20500;-70
2021/05/22 11:24:16;;;;;;;1.02;1.02;;;13.70;99.90;;;;;;4903007;29;20467;-72
2021/05/22 11:26:59;;;;;;;1.80;1.10;;;13.70;99.90;;;;;;4917415;29;20214;-72
2021/05/22 11:30:07;;;;;;;1.13;1.10;;;13.60;99.90;;;;;;4916829;29;20461;-72
2021/05/22 11:32:53;;;;;;;1.10;1.10;;;13.50;99.90;;;;;;4892400;29;20600;-71
2021/05/22 11:35:42;;;;;;;3.40;1.20;;;13.50;99.90;;;;;;4917600;29;20663;-71
2021/05/22 11:38:32;;;;;;;1.35;1.25;;;13.40;99.90;;;;;;4916634;29;20314;-71
2021/05/22 11:41:00;;;;;;;1.40;1.40;;;13.50;99.90;;;;;;4917461;29;20248;-71
2021/05/22 11:43:30;;;;;;;1.33;1.00;;;13.50;99.90;;;;;;4915909;29;20218;-72
2021/05/22 11:45:58;;;;;;;1.93;1.40;;;13.70;99.90;;;;;;4917575;29;20902;-72
2021/05/22 11:48:26;;;;;;;0.93;0.93;;;13.70;99.90;;;;;;4917474;29;20474;-72
2021/05/22 11:50:54;;;;;;;0.90;0.90;;;13.70;99.90;;;;;;4917172;29;20226;-72
2021/05/22 11:53:20;;;;;;;2.63;1.20;;;13.70;99.90;;;;;;4916614;29;20467;-71
2021/05/22 11:55:54;;;;;;;0.97;0.97;;;13.80;99.90;;;;;;4916778;29;20571;-71
2021/05/22 11:58:22;;;;;;;1.13;1.03;;;14.00;99.90;;;;;;4916077;29;20494;-71
2021/05/22 12:00:48;;;;;;;1.73;1.60;;;14.20;99.90;;;;;;4916653;29;20509;-71
2021/05/22 12:03:23;;;;;;;1.27;1.13;;;14.30;99.90;;;;;;4916402;29;20876;-71
2021/05/22 12:05:50;;;;;;;1.30;1.30;;;14.30;99.90;;;;;;4916829;29;20557;-71
2021/05/22 12:08:17;;;;;;;0.90;0.90;;;14.20;99.90;;;;;;4917031;29;20475;-71
2021/05/22 12:10:43;;;;;;;1.10;1.10;;;14.10;99.90;;;;;;4917071;29;20482;-71
2021/05/22 12:13:10;;;;;;;1.03;1.03;;;14.30;99.90;;;;;;4915721;29;20473;-71
2021/05/22 12:15:38;;;;;;;2.87;1.20;;;14.20;99.90;;;;;;4916777;29;20530;-72
2021/05/22 12:18:06;;;;;;;0.97;0.97;;;14.20;99.90;;;;;;4916814;29;20498;-71
2021/05/22 12:20:44;;;;;;;1.03;1.03;;;14.10;99.90;;;;;;4916692;29;20498;-72
2021/05/22 12:23:23;;;;;;;1.47;1.37;;;14.20;99.90;;;;;;4916390;29;20451;-71
2021/05/22 12:25:49;;;;;;;0.80;0.80;;;14.00;99.90;;;;;;4916824;29;20923;-72
2021/05/22 12:28:16;;;;;;;0.87;0.87;;;14.00;99.90;;;;;;4915746;29;20985;-72
2021/05/22 12:30:43;;;;;;;1.07;0.90;;;14.00;99.90;;;;;;4916868;29;20493;-72
2021/05/22 12:33:10;;;;;;;1.07;1.07;;;14.00;99.90;;;;;;4916277;29;20807;-72
2021/05/22 12:35:36;;;;;;;0.70;0.70;;;14.00;99.90;;;;;;4916713;29;20470;-70
2021/05/22 12:38:02;;;;;;;1.03;1.03;;;13.80;99.90;;;;;;4916370;29;20792;-71
2021/05/22 12:40:28;;;;;;;4.83;1.00;;;13.70;99.90;;;;;;4916638;29;21002;-71
2021/05/22 12:42:54;;;;;;;0.80;0.80;;;13.70;99.90;;;;;;4915731;29;20470;-73
2021/05/22 12:45:22;;;;;;;1.07;1.07;;;13.90;99.90;;;;;;4915974;29;20941;-71
2021/05/22 12:47:51;;;;;;;0.90;0.90;;;14.10;99.90;;;;;;4916562;29;21165;-71
2021/05/22 12:50:25;;;;;;;1.20;1.10;;;14.10;99.90;;;;;;4915320;29;20478;-71
2021/05/22 12:52:53;;;;;;;1.17;1.17;;;14.20;99.90;;;;;;4915820;29;20493;-69
2021/05/22 12:55:21;;;;;;;1.20;1.20;;;14.30;99.90;;;;;;4916021;29;20463;-72
2021/05/22 12:57:47;;;;;;;0.87;0.87;;;14.40;99.90;;;;;;4915122;29;21058;-72
2021/05/22 13:00:15;;;;;;;1.13;1.13;;;14.50;99.90;;;;;;4914769;29;20494;-69
2021/05/22 13:02:53;;;;;;;1.30;1.30;;;14.40;99.90;;;;;;4915564;29;20466;-71
2021/05/22 13:05:24;;;;;;;1.63;0.90;;;14.30;99.90;;;;;;4915511;29;20465;-72
2021/05/22 13:07:53;;;;;;;1.03;1.03;;;14.30;99.90;;;;;;4915876;29;20545;-71
2021/05/22 13:10:22;;;;;;;1.00;1.00;;;14.20;99.90;;;;;;4915825;29;20458;-71
2021/05/22 13:12:57;;;;;;;1.03;1.03;;;14.30;99.90;;;;;;4915425;29;20807;-71
2021/05/22 13:15:25;;;;;;;2.20;1.20;;;14.40;99.90;;;;;;4915687;29;20473;-70
2021/05/22 13:17:53;;;;;;;1.27;1.07;;;14.40;99.90;;;;;;4916011;29;20490;-69
2021/05/22 13:20:22;;;;;;;2.43;1.37;;;14.20;99.90;;;;;;4914629;29;20494;-69
2021/05/22 13:22:48;;;;;;;1.27;1.20;;;14.20;99.90;;;;;;4915492;29;20469;-70
2021/05/22 13:25:17;;;;;;;1.40;1.40;;;14.20;99.90;;;;;;4915705;29;20462;-70
2021/05/22 13:28:07;;;;;;;1.90;1.20;;;14.00;99.90;;;;;;4915165;29;20471;-70
2021/05/22 13:30:35;;;;;;;1.27;1.27;;;14.00;99.90;;;;;;4915373;29;20493;-70
2021/05/22 13:33:03;;;;;;;1.23;1.20;;;13.90;99.90;;;;;;4915194;29;20469;-70
2021/05/22 13:35:30;;;;;;;1.30;1.30;;;13.80;99.90;;;;;;4915328;29;20797;-70
2021/05/22 13:37:58;;;;;;;1.10;1.10;;;13.80;99.90;;;;;;4915436;29;20512;-70
2021/05/22 13:40:27;;;;;;;1.87;1.13;;;13.80;99.90;;;;;;4915403;29;20471;-70
2021/05/22 13:42:53;;;;;;;2.20;1.43;;;13.70;99.90;;;;;;4914294;29;20463;-70
2021/05/22 13:45:19;;;;;;;1.10;1.10;;;13.70;99.90;;;;;;4914754;29;20478;-70
2021/05/22 13:47:46;;;;;;;1.43;1.40;;;13.80;99.90;;;;;;4915112;29;20459;-70
2021/05/22 13:50:13;;;;;;;1.33;1.33;;;13.70;99.90;;;;;;4915030;29;20522;-70
2021/05/22 13:52:40;;;;;;;1.57;1.57;;;13.70;99.90;;;;;;4912992;29;20478;-70
2021/05/22 13:55:08;;;;;;;1.50;1.50;;;13.70;99.90;;;;;;4914797;29;20506;-71
2021/05/22 13:57:34;;;;;;;1.57;1.57;;;13.80;99.90;;;;;;4914797;29;20514;-71
2021/05/22 14:00:02;;;;;;;1.63;1.63;;;13.80;99.90;;;;;;4914044;29;20470;-71
2021/05/22 14:02:29;;;;;;;1.50;1.40;;;13.80;99.90;;;;;;4913861;29;20986;-71
2021/05/22 14:04:56;;;;;;;2.07;2.07;;;13.90;99.90;;;;;;4918154;29;20494;-71
2021/05/22 14:07:23;;;;;;;2.70;2.57;;;13.90;99.90;;;;;;4919261;29;20470;-71
2021/05/22 14:09:51;;;;;;;1.93;1.93;;;13.80;99.90;;;;;;4918779;29;20470;-70
2021/05/22 14:12:18;;;;;;;1.90;1.80;;;13.70;99.90;;;;;;4905479;29;20490;-71
2021/05/22 14:14:44;;;;;;;1.60;1.60;;;13.70;99.90;;;;;;4918696;29;20494;-70
2021/05/22 14:17:10;;;;;;;2.00;1.10;;;13.80;99.90;;;;;;4918354;29;20470;-71
2021/05/22 14:19:36;;;;;;;1.23;1.23;;;14.00;99.90;;;;;;4928939;29;20469;-71
2021/05/22 14:22:03;;;;;;;1.40;1.40;;;14.10;99.90;;;;;;4919192;29;20504;-70
2021/05/22 14:24:30;;;;;;;1.60;1.60;;;14.00;99.90;;;;;;4916925;29;20482;-70
2021/05/22 14:26:56;;;;;;;1.40;1.40;;;14.10;99.90;;;;;;4918474;29;20462;-71
2021/05/22 14:29:22;;;;;;;1.40;1.40;;;14.20;99.90;;;;;;4916859;29;20461;-70
2021/05/22 14:31:48;;;;;;;1.43;1.43;;;14.20;99.90;;;;;;4918246;29;20496;-71
2021/05/22 14:34:14;;;;;;;2.30;1.40;;;14.10;99.90;;;;;;4915967;29;20930;-71
2021/05/22 14:36:41;;;;;;;3.40;1.83;;;14.00;99.90;;;;;;4918550;29;20466;-71
2021/05/22 14:39:08;;;;;;;1.20;1.10;;;13.90;99.90;;;;;;4917804;29;20497;-71
2021/05/22 14:41:35;;;;;;;1.60;1.60;;;13.80;99.90;;;;;;4917181;29;20576;-71
2021/05/22 14:44:01;;;;;;;1.87;1.87;;;13.70;99.90;;;;;;4915579;29;20470;-71
2021/05/22 14:46:27;;;;;;;2.13;2.13;;;13.60;99.90;;;;;;4916789;29;20522;-71
2021/05/22 14:48:54;;;;;;;1.92;1.83;;;13.60;99.90;;;;;;4917530;29;20822;-71
2021/05/22 14:51:20;;;;;;;5.80;2.73;;;13.60;99.90;;;;;;4917259;29;20353;-71
2021/05/22 14:53:46;;;;;;;1.93;1.93;;;13.60;99.90;;;;;;4917265;29;20470;-71
2021/05/22 14:56:13;;;;;;;1.87;1.87;;;13.50;99.90;;;;;;4918770;29;20470;-71
2021/05/22 14:58:40;;;;;;;1.55;1.45;;;13.50;99.90;;;;;;4916801;29;20491;-71
2021/05/22 15:01:06;;;;;;;2.73;2.33;;;13.40;99.90;;;;;;4917635;29;20627;-71
2021/05/22 15:03:32;;;;;;;4.73;4.43;;;13.40;99.90;;;;;;4916891;29;20466;-71
2021/05/22 15:05:59;;;;;;;2.43;2.43;;;13.50;99.90;;;;;;4918229;29;20462;-71
2021/05/22 15:08:25;;;;;;;2.63;2.40;;;13.60;99.90;;;;;;4917891;29;20471;-70
2021/05/22 15:10:53;;;;;;;2.80;2.80;;;13.60;99.90;;;;;;4917608;29;20490;-70
2021/05/22 15:13:19;;;;;;;2.50;2.40;;;13.70;99.90;;;;;;4915096;29;20477;-70
2021/05/22 15:15:46;;;;;;;2.00;2.00;;;13.80;99.90;;;;;;4917872;29;20466;-69
2021/05/22 15:18:13;;;;;;;2.13;2.03;;;13.70;99.90;;;;;;4917619;29;20482;-70
2021/05/22 15:20:39;;;;;;;2.23;2.13;;;13.80;99.90;;;;;;4917696;29;20912;-70
2021/05/22 15:23:05;;;;;;;2.30;2.20;;;13.90;99.90;;;;;;4917417;29;20495;-70
2021/05/22 15:25:33;;;;;;;2.83;2.63;;;13.90;99.90;;;;;;4917733;29;20470;-71
2021/05/22 15:27:59;;;;;;;2.50;2.50;;;13.90;99.90;;;;;;4917161;29;20454;-70
2021/05/22 15:30:27;;;;;;;2.53;2.53;;;13.80;99.90;;;;;;4917167;29;20490;-71
2021/05/22 15:32:54;;;;;;;2.00;2.00;;;13.80;99.90;;;;;;4917060;29;20546;-71
2021/05/22 15:35:20;;;;;;;2.20;2.20;;;13.80;99.90;;;;;;4917758;29;20466;-71
2021/05/22 15:37:47;;;;;;;2.23;2.13;;;13.80;99.90;;;;;;4917419;29;20494;-69
2021/05/22 15:40:14;;;;;;;3.05;2.85;;;13.90;99.90;;;;;;4916184;29;20474;-69
2021/05/22 15:42:40;;;;;;;1.90;1.80;;;14.10;99.90;;;;;;4913140;29;20206;-69
2021/05/22 15:45:08;;;;;;;2.07;2.07;;;14.20;99.90;;;;;;4916495;29;20585;-71
2021/05/22 15:48:02;;;;;;;2.03;2.03;;;14.10;99.90;;;;;;4917498;29;20466;-71
2021/05/22 15:56:27;;;;;;;2.03;2.03;;;13.90;99.90;;;;;;4917575;29;20473;-69
2021/05/22 15:58:52;;;;;;;2.17;2.17;;;13.90;99.90;;;;;;4915968;29;20483;-71
2021/05/22 16:01:22;;;;;;;2.43;2.33;;;13.80;99.90;;;;;;4917238;29;20494;-70
2021/05/22 16:04:08;;;;;;;2.90;2.90;;;13.70;99.90;;;;;;4917106;29;20467;-70
2021/05/22 16:06:35;;;;;;;2.43;2.43;;;13.70;99.90;;;;;;4917573;29;20454;-70
2021/05/22 16:09:02;;;;;;;2.67;2.67;;;13.70;99.90;;;;;;4916874;29;20809;-70
2021/05/22 16:11:28;;;;;;;2.28;2.28;;;13.70;99.90;;;;;;4917207;29;20486;-70
2021/05/22 16:13:54;;;;;;;2.20;2.17;;;13.60;99.90;;;;;;4915879;29;20220;-69
2021/05/22 16:16:21;;;;;;;2.70;2.60;;;13.50;99.90;;;;;;4916039;29;20932;-70
2021/05/22 16:18:47;;;;;;;2.45;2.45;;;13.50;99.90;;;;;;4916314;29;20478;-69
2021/05/22 16:21:13;;;;;;;2.60;2.50;;;13.50;99.90;;;;;;4916833;29;20222;-70
2021/05/22 16:23:40;;;;;;;1.98;1.98;;;13.60;99.90;;;;;;4915333;29;20226;-70
2021/05/22 16:26:06;;;;;;;2.40;2.30;;;13.60;99.90;;;;;;4916438;29;20202;-71
2021/05/22 16:28:32;;;;;;;2.40;2.30;;;13.60;99.90;;;;;;4915866;29;20946;-70
2021/05/22 16:30:59;;;;;;;3.45;2.78;;;13.60;99.90;;;;;;4916492;29;20637;-70
2021/05/22 16:33:25;;;;;;;2.50;2.50;;;13.60;99.90;;;;;;4916426;29;20655;-70
2021/05/22 16:35:52;;;;;;;2.70;2.60;;;13.70;99.90;;;;;;4915738;29;21050;-70
2021/05/22 16:38:18;;;;;;;2.80;2.60;;;13.70;99.90;;;;;;4916216;29;20579;-70
2021/05/22 16:40:45;;;;;;;2.50;2.50;;;13.60;99.90;;;;;;4915833;29;20502;-71
2021/05/22 16:43:11;;;;;;;3.30;3.20;;;13.70;99.90;;;;;;4915257;29;20261;-72
2021/05/22 16:45:37;;;;;;;2.10;2.10;;;13.70;99.90;;;;;;4916434;29;20467;-71
2021/05/22 16:48:04;;;;;;;2.60;2.50;;;14.00;99.90;;;;;;4915586;29;20816;-72
2021/05/22 16:50:31;;;;;;;2.30;2.27;;;14.00;99.90;;;;;;4914588;29;20906;-70
2021/05/22 16:52:57;;;;;;;2.63;2.53;;;14.20;99.90;;;;;;4914612;29;20478;-70
2021/05/22 16:55:24;;;;;;;2.60;2.60;;;14.30;99.90;;;;;;4914334;29;20497;-71
2021/05/22 16:57:51;;;;;;;2.70;2.53;;;14.40;99.90;;;;;;4919152;29;20572;-71
2021/05/22 17:00:19;;;;;;;2.40;2.30;;;14.40;99.90;;;;;;4931262;29;20467;-71